createdAt,value
2018-07-11T00:01:04.212Z,67.50
2018-07-11T00:03:54.273Z,67.10
2018-07-11T00:06:23.479Z,75.70
2018-07-11T00:08:51.418Z,66.80
2018-07-11T00:11:19.377Z,66.60
2018-07-11T00:13:47.907Z,66.40
2018-07-11T00:16:16.477Z,66.40
2018-07-11T00:18:44.487Z,66.30
2018-07-11T00:23:40.382Z,66.90
2018-07-11T00:26:09.420Z,67.70
2018-07-11T00:31:05.362Z,68.70
2018-07-11T00:36:01.299Z,67.70
2018-07-11T00:40:58.649Z,67.20
2018-07-11T00:43:27.559Z,67.80
2018-07-11T00:48:23.468Z,67.40
2018-07-11T00:50:51.406Z,67.70
2018-07-11T00:53:21.073Z,67.50
2018-07-11T00:55:49.057Z,67.60
2018-07-11T00:58:49.102Z,67.70
2018-07-11T01:01:17.080Z,68.10
2018-07-11T01:03:56.943Z,68.00
2018-07-11T01:06:24.946Z,67.80
2018-07-11T01:08:59.510Z,67.40
2018-07-11T01:11:36.571Z,66.90
2018-07-11T01:14:04.555Z,66.60
2018-07-11T01:16:32.630Z,66.00
2018-07-11T01:19:08.421Z,65.70
2018-07-11T01:24:04.828Z,65.90
2018-07-11T01:26:39.285Z,65.30
2018-07-11T01:31:35.763Z,64.50
2018-07-11T01:34:03.755Z,64.50
2018-07-11T01:36:31.980Z,63.90
2018-07-11T01:41:28.561Z,64.60
2018-07-11T01:43:56.524Z,76.80
2018-07-11T01:46:28.242Z,64.00
2018-07-11T01:48:56.210Z,64.30
2018-07-11T01:52:20.314Z,64.00
2018-07-11T01:59:44.127Z,64.90
2018-07-11T02:02:12.192Z,64.70
2018-07-11T02:07:09.504Z,69.20
2018-07-11T02:09:37.619Z,64.40
2018-07-11T02:12:05.651Z,63.90
2018-07-11T02:14:34.478Z,63.90
2018-07-11T02:17:02.460Z,76.00
2018-07-11T02:19:30.394Z,64.00
2018-07-11T02:21:58.358Z,64.50
2018-07-11T02:24:26.333Z,64.30
2018-07-11T02:26:54.909Z,63.80
2018-07-11T02:29:23.072Z,64.20
2018-07-11T02:31:50.990Z,63.80
2018-07-11T02:34:32.761Z,63.80
2018-07-11T02:37:01.091Z,63.60
2018-07-11T02:39:29.124Z,63.70
2018-07-11T02:41:57.467Z,64.00
2018-07-11T02:44:25.417Z,64.10
2018-07-11T02:47:11.615Z,64.30
2018-07-11T02:49:39.600Z,77.20
2018-07-11T02:52:07.605Z,64.30
2018-07-11T02:54:35.543Z,64.50
2018-07-11T02:57:03.476Z,64.70
2018-07-11T02:59:31.451Z,64.60
2018-07-11T03:01:59.581Z,64.90
2018-07-11T03:04:27.595Z,78.30
2018-07-11T03:06:55.531Z,65.10
2018-07-11T03:09:23.477Z,77.70
2018-07-11T03:11:51.436Z,65.60
2018-07-11T03:14:19.395Z,65.50
2018-07-11T03:19:15.309Z,66.20
2018-07-11T03:21:43.250Z,65.60
2018-07-11T03:24:11.199Z,65.10
2018-07-11T03:26:39.126Z,65.60
2018-07-11T03:29:07.098Z,65.10
2018-07-11T03:36:30.980Z,65.70
2018-07-11T03:38:58.890Z,65.60
2018-07-11T03:41:27.262Z,65.60
2018-07-11T03:46:23.103Z,65.70
2018-07-11T03:48:51.088Z,66.00
2018-07-11T03:51:19.056Z,65.70
2018-07-11T03:53:47.099Z,66.20
2018-07-11T03:56:15.027Z,66.60
2018-07-11T03:58:42.992Z,66.70
2018-07-11T04:01:10.972Z,79.00
2018-07-11T04:03:38.935Z,67.00
2018-07-11T04:06:06.923Z,79.10
2018-07-11T04:13:30.781Z,67.10
2018-07-11T04:15:58.726Z,67.10
2018-07-11T04:18:30.165Z,67.00
2018-07-11T04:20:59.953Z,66.90
2018-07-11T04:25:56.094Z,67.80
2018-07-11T04:28:28.133Z,68.10
2018-07-11T04:30:56.265Z,67.80
2018-07-11T04:33:24.285Z,80.90
2018-07-11T04:38:21.037Z,68.60
2018-07-11T04:40:49.610Z,68.50
2018-07-11T04:43:18.229Z,68.00
2018-07-11T04:48:17.207Z,68.30
2018-07-11T04:50:46.453Z,68.20
2018-07-11T04:53:26.546Z,68.30
2018-07-11T04:56:02.941Z,68.60
2018-07-11T04:58:31.630Z,68.20
2018-07-11T05:10:52.916Z,68.90
2018-07-11T05:13:21.158Z,68.80
2018-07-11T05:15:49.146Z,69.10
2018-07-11T05:20:45.654Z,69.80
2018-07-11T05:23:13.850Z,69.10
2018-07-11T05:25:42.252Z,69.50
2018-07-11T05:38:02.198Z,69.20
2018-07-11T05:42:58.072Z,69.60
2018-07-11T05:45:26.180Z,70.00
2018-07-11T05:47:54.116Z,69.70
2018-07-11T05:50:22.060Z,69.10
2018-07-11T05:52:50.027Z,69.40
2018-07-11T05:55:17.979Z,69.30
2018-07-11T05:57:45.986Z,69.90
2018-07-11T06:00:13.975Z,70.10
2018-07-11T06:02:41.986Z,70.10
2018-07-11T06:07:37.836Z,69.30
2018-07-11T06:10:06.081Z,69.60
2018-07-11T06:12:34.440Z,70.10
2018-07-11T06:15:02.904Z,69.20
2018-07-11T06:17:31.018Z,69.40
2018-07-11T06:22:26.974Z,68.70
2018-07-11T06:24:54.949Z,68.70
2018-07-11T06:27:22.902Z,68.30
2018-07-11T06:29:50.869Z,68.60
2018-07-11T06:32:18.817Z,68.60
2018-07-11T06:39:42.636Z,68.10
2018-07-11T06:42:10.588Z,68.50
2018-07-11T06:47:15.559Z,68.20
2018-07-11T06:49:45.371Z,67.80
2018-07-11T06:52:13.607Z,67.40
2018-07-11T06:54:41.576Z,67.10
2018-07-11T06:57:09.559Z,66.80
2018-07-11T07:07:01.813Z,66.40
2018-07-11T07:09:29.742Z,66.20
2018-07-11T07:11:57.727Z,66.10
2018-07-11T07:14:25.678Z,65.50
2018-07-11T07:16:53.635Z,65.40
2018-07-11T07:19:21.602Z,65.50
2018-07-11T07:21:49.598Z,65.50
2018-07-11T07:24:17.691Z,65.00
2018-07-11T07:26:45.612Z,65.60
2018-07-11T07:29:13.567Z,65.30
2018-07-11T07:39:05.656Z,64.50
2018-07-11T07:41:33.591Z,77.10
2018-07-11T07:44:01.561Z,64.60
2018-07-11T07:46:29.523Z,64.20
2018-07-11T07:48:57.595Z,63.70
2018-07-11T07:53:53.559Z,63.80
2018-07-11T07:56:21.559Z,64.20
2018-07-11T07:58:49.479Z,64.70
2018-07-11T08:01:17.444Z,64.90
2018-07-11T08:03:45.403Z,65.10
2018-07-11T08:08:41.295Z,64.90
2018-07-11T08:11:09.272Z,63.90
2018-07-11T08:13:37.228Z,63.70
2018-07-11T08:16:05.159Z,63.80
2018-07-11T08:21:01.258Z,64.10
2018-07-11T08:24:24.514Z,63.70
2018-07-11T08:28:00.327Z,64.30
2018-07-11T08:31:58.925Z,64.50
2018-07-11T08:35:22.884Z,64.20
2018-07-11T08:42:09.706Z,63.50
2018-07-11T08:45:27.293Z,63.60
2018-07-11T08:49:02.411Z,62.70
2018-07-11T08:52:38.240Z,63.10
2018-07-11T08:55:46.546Z,62.30
2018-07-11T08:59:22.523Z,62.60
2018-07-11T09:05:56.170Z,63.10
2018-07-11T09:09:32.098Z,60.70
2018-07-11T09:12:56.019Z,61.10
2018-07-11T09:16:32.922Z,61.30
2018-07-11T09:20:23.456Z,61.30
2018-07-11T09:24:02.833Z,61.60
2018-07-11T09:26:30.865Z,68.60
2018-07-11T09:28:58.853Z,61.00
2018-07-11T09:33:54.783Z,60.40
2018-07-11T09:36:22.747Z,59.80
2018-07-11T09:38:50.705Z,60.30
2018-07-11T09:41:18.668Z,59.90
2018-07-11T09:43:46.612Z,70.30
2018-07-11T09:46:14.580Z,60.00
2018-07-11T09:48:42.534Z,58.90
2018-07-11T09:51:10.526Z,59.10
2018-07-11T09:53:38.476Z,59.40
2018-07-11T09:56:06.433Z,59.20
2018-07-11T09:58:34.389Z,60.40
2018-07-11T10:01:20.278Z,60.00
2018-07-11T10:03:48.209Z,60.00
2018-07-11T10:06:16.145Z,59.40
2018-07-11T10:08:44.118Z,58.60
2018-07-11T10:11:12.060Z,59.30
2018-07-11T10:13:40.021Z,60.30
2018-07-11T10:16:07.998Z,59.30
2018-07-11T10:18:35.940Z,58.50
2018-07-11T10:23:31.788Z,57.40
2018-07-11T10:26:00.016Z,57.70
2018-07-11T10:28:28.009Z,57.60
2018-07-11T10:35:51.893Z,58.90
2018-07-11T10:38:19.832Z,58.90
2018-07-11T10:40:47.787Z,60.20
2018-07-11T10:43:15.765Z,58.90
2018-07-11T10:45:43.707Z,58.30
2018-07-11T10:48:11.682Z,59.40
2018-07-11T10:50:39.725Z,56.90
2018-07-11T10:53:07.612Z,69.20
2018-07-11T10:55:35.554Z,57.70
2018-07-11T11:00:36.658Z,56.20
2018-07-11T11:02:59.409Z,55.90
2018-07-11T11:05:27.378Z,56.20
2018-07-11T11:07:55.323Z,54.50
2018-07-11T11:10:23.280Z,54.30
2018-07-11T11:12:51.206Z,55.20
2018-07-11T11:15:19.118Z,54.30
2018-07-11T11:17:47.085Z,55.60
2018-07-11T11:20:15.021Z,54.90
2018-07-11T11:22:43.081Z,55.10
2018-07-11T11:25:11.035Z,54.30
2018-07-11T11:27:38.990Z,53.50
2018-07-11T11:30:06.933Z,53.30
2018-07-11T11:32:34.873Z,54.10
2018-07-11T11:37:30.795Z,53.60
2018-07-11T11:39:58.835Z,53.30
2018-07-11T11:42:26.982Z,53.70
2018-07-11T11:44:54.779Z,67.00
2018-07-11T11:47:28.380Z,53.10
2018-07-11T11:49:56.952Z,64.00
2018-07-11T11:52:25.067Z,53.40
2018-07-11T11:57:21.903Z,52.00
2018-07-11T11:59:49.908Z,51.50
2018-07-11T12:02:17.860Z,52.30
2018-07-11T12:07:13.822Z,51.50
2018-07-11T12:09:41.725Z,63.70
2018-07-11T12:12:09.645Z,52.50
2018-07-11T12:19:33.584Z,52.60
2018-07-11T12:22:01.518Z,51.70
2018-07-11T12:24:29.628Z,49.40
2018-07-11T12:26:57.711Z,50.30
2018-07-11T12:29:25.660Z,51.30
2018-07-11T12:31:53.664Z,50.60
2018-07-11T12:34:22.438Z,50.70
2018-07-11T12:36:52.611Z,49.90
2018-07-11T12:39:20.552Z,49.80
2018-07-11T12:44:16.463Z,49.50
2018-07-11T12:46:44.444Z,60.20
2018-07-11T12:49:12.391Z,58.70
2018-07-11T12:51:40.352Z,49.10
2018-07-11T12:54:08.310Z,48.70
2018-07-11T12:56:36.238Z,48.30
2018-07-11T13:01:32.143Z,50.40
2018-07-11T13:04:00.711Z,47.90
2018-07-11T13:06:29.212Z,47.50
2018-07-11T13:08:57.192Z,46.70
2018-07-11T13:13:53.160Z,46.30
2018-07-11T13:16:21.270Z,57.70
2018-07-11T13:18:49.538Z,58.20
2018-07-11T13:21:17.502Z,57.00
2018-07-11T13:23:45.600Z,45.10
2018-07-11T13:26:13.537Z,46.10
2018-07-11T13:28:41.559Z,45.60
2018-07-11T13:33:38.215Z,46.90
2018-07-11T13:36:06.221Z,47.80
2018-07-11T13:38:34.140Z,47.20
2018-07-11T13:43:30.001Z,44.50
2018-07-11T13:45:57.968Z,43.50
2018-07-11T13:48:25.912Z,43.40
2018-07-11T13:53:21.972Z,43.20
2018-07-11T13:55:49.955Z,44.00
2018-07-11T13:58:17.960Z,43.00
2018-07-11T14:00:45.925Z,42.60
2018-07-11T14:03:13.904Z,54.20
2018-07-11T14:05:41.845Z,54.00
2018-07-11T14:08:09.909Z,41.80
2018-07-11T14:10:37.893Z,42.90
2018-07-11T14:13:05.876Z,40.70
2018-07-11T14:15:33.786Z,51.00
2018-07-11T14:18:01.800Z,40.30
2018-07-11T14:20:29.831Z,39.80
2018-07-11T14:23:04.760Z,49.80
2018-07-11T14:25:35.894Z,51.20
2018-07-11T14:28:03.850Z,39.40
2018-07-11T14:33:09.371Z,38.30
2018-07-11T14:35:37.352Z,38.90
2018-07-11T14:38:05.282Z,39.30
2018-07-11T14:40:33.244Z,39.10
2018-07-11T14:43:01.173Z,38.40
2018-07-11T14:48:14.507Z,37.70
2018-07-11T14:50:42.739Z,37.60
2018-07-11T14:53:10.696Z,37.20
2018-07-11T14:58:06.608Z,38.20
2018-07-11T15:00:34.519Z,38.90
2018-07-11T15:03:02.555Z,45.60
2018-07-11T15:05:30.799Z,34.40
2018-07-11T15:10:27.131Z,30.90
2018-07-11T15:12:55.120Z,31.40
2018-07-11T15:17:51.038Z,30.20
2018-07-11T15:20:19.009Z,30.80
2018-07-11T15:22:46.968Z,31.90
2018-07-11T15:25:14.911Z,43.30
2018-07-11T15:27:42.899Z,34.60
2018-07-11T15:30:10.868Z,34.90
2018-07-11T15:32:38.835Z,37.30
2018-07-11T15:35:06.999Z,45.60
2018-07-11T15:40:03.750Z,36.20
2018-07-11T15:42:31.737Z,36.20
2018-07-11T15:44:59.682Z,47.00
2018-07-11T15:47:28.927Z,46.80
2018-07-11T15:49:57.446Z,35.40
2018-07-11T15:52:25.957Z,46.10
2018-07-11T15:54:58.304Z,36.40
2018-07-11T15:57:38.249Z,42.90
2018-07-11T16:00:11.621Z,47.00
2018-07-11T16:02:46.490Z,35.00
2018-07-11T16:05:22.193Z,36.20
2018-07-11T16:10:56.099Z,35.60
2018-07-11T16:13:24.009Z,36.00
2018-07-11T16:15:51.944Z,35.40
2018-07-11T16:20:47.870Z,34.70
2018-07-11T16:28:12.020Z,35.30
2018-07-11T16:30:39.988Z,44.60
2018-07-11T16:33:07.919Z,35.40
2018-07-11T16:40:32.481Z,34.70
2018-07-11T16:43:01.116Z,34.00
2018-07-11T16:47:58.343Z,34.80
2018-07-11T16:50:26.279Z,35.50
2018-07-11T16:52:54.690Z,35.30
2018-07-11T16:55:23.015Z,35.00
2018-07-11T17:00:32.240Z,35.90
2018-07-11T17:03:14.779Z,36.70
2018-07-11T17:08:33.287Z,36.50
2018-07-11T17:11:24.380Z,46.80
2018-07-11T17:13:57.900Z,36.20
2018-07-11T17:16:52.704Z,36.30
2018-07-11T17:19:50.969Z,36.10
2018-07-11T17:22:25.032Z,36.20
2018-07-11T17:27:22.933Z,34.70
2018-07-11T17:29:50.953Z,35.10
2018-07-11T17:32:18.887Z,36.00
2018-07-11T17:34:47.014Z,36.50
2018-07-11T17:39:54.516Z,38.20
2018-07-11T17:45:19.643Z,38.20
2018-07-11T17:51:02.771Z,38.30
2018-07-11T17:53:47.568Z,38.50
2018-07-11T17:56:15.561Z,46.00
2018-07-11T17:58:57.190Z,39.50
2018-07-11T18:01:41.979Z,40.10
2018-07-11T18:05:00.580Z,40.30
2018-07-11T18:08:05.140Z,47.60
2018-07-11T18:17:11.769Z,42.70
2018-07-11T18:23:57.000Z,43.20
2018-07-11T18:27:10.783Z,52.20
2018-07-11T18:30:38.779Z,42.20
2018-07-11T18:37:20.442Z,43.50
2018-07-11T18:40:02.187Z,43.40
2018-07-11T18:46:27.017Z,44.30
2018-07-11T18:49:58.341Z,44.60
2018-07-11T18:55:24.187Z,45.30
2018-07-11T19:01:11.800Z,45.70
2018-07-11T19:04:27.961Z,45.60
2018-07-11T19:07:47.100Z,55.20
2018-07-11T19:10:46.253Z,47.00
2018-07-11T19:13:45.388Z,48.00
2018-07-11T19:16:56.098Z,48.30
2018-07-11T19:19:42.845Z,48.40
2018-07-11T19:22:43.530Z,49.30
2018-07-11T19:26:10.780Z,49.70
2018-07-11T19:29:01.987Z,63.50
2018-07-11T19:31:58.269Z,51.60
2018-07-11T19:35:18.106Z,51.00
2018-07-11T19:44:00.826Z,52.60
2018-07-11T19:47:24.917Z,52.60
2018-07-11T19:50:26.131Z,53.20
2018-07-11T19:53:43.294Z,54.00
2018-07-11T20:01:38.686Z,54.90
2018-07-11T20:04:06.682Z,55.40
2018-07-11T20:06:34.649Z,55.20
2018-07-11T20:09:03.572Z,67.30
2018-07-11T20:13:59.521Z,56.00
2018-07-11T20:18:55.501Z,56.50
2018-07-11T20:21:23.582Z,70.20
2018-07-11T20:23:52.021Z,58.00
2018-07-11T20:28:50.356Z,58.60
2018-07-11T20:31:18.316Z,58.90
2018-07-11T20:33:46.272Z,70.60
2018-07-11T20:36:14.262Z,71.20
2018-07-11T20:38:42.515Z,71.70
2018-07-11T20:41:10.520Z,71.30
2018-07-11T20:46:07.811Z,59.30
2018-07-11T20:48:37.187Z,59.50
2018-07-11T20:51:05.228Z,59.20
2018-07-11T20:53:33.220Z,59.20
2018-07-11T20:56:01.164Z,59.60
2018-07-11T20:59:24.189Z,60.00
2018-07-11T21:02:51.258Z,59.90
2018-07-11T21:06:07.076Z,60.90
2018-07-11T21:10:00.701Z,60.90
2018-07-11T21:13:01.720Z,60.80
2018-07-11T21:19:10.267Z,62.00
2018-07-11T21:24:08.209Z,63.80
2018-07-11T21:26:37.401Z,62.60
2018-07-11T21:29:05.407Z,73.70
2018-07-11T21:31:33.381Z,62.20
2018-07-11T21:36:29.210Z,62.50
2018-07-11T21:44:23.111Z,63.20
2018-07-11T21:49:23.583Z,63.10
2018-07-11T21:51:52.501Z,63.70
2018-07-11T21:54:20.440Z,63.90
2018-07-11T21:56:48.401Z,63.80
2018-07-11T21:59:16.385Z,63.90
2018-07-11T22:01:44.407Z,64.20
2018-07-11T22:04:12.354Z,64.40
2018-07-11T22:06:40.288Z,64.10
2018-07-11T22:09:08.303Z,64.30
2018-07-11T22:11:36.247Z,63.70
2018-07-11T22:14:04.304Z,63.70
2018-07-11T22:16:32.387Z,63.50
2018-07-11T22:19:00.416Z,63.50
2018-07-11T22:21:26.953Z,64.20
2018-07-11T22:23:53.446Z,64.10
2018-07-11T22:26:20.071Z,64.10
2018-07-11T22:28:46.593Z,64.50
2018-07-11T22:31:13.106Z,65.10
2018-07-11T22:33:39.764Z,65.50
2018-07-11T22:36:06.809Z,66.00
2018-07-11T22:38:33.409Z,66.40
2018-07-11T22:45:53.998Z,67.80
2018-07-11T22:50:48.807Z,68.80
2018-07-11T22:53:15.367Z,69.10
2018-07-11T22:58:08.914Z,70.00
2018-07-11T23:00:35.436Z,69.40
2018-07-11T23:03:01.944Z,70.40
2018-07-11T23:05:29.468Z,70.50
2018-07-11T23:07:56.756Z,70.30
2018-07-11T23:10:24.782Z,70.30
2018-07-11T23:15:18.985Z,76.60
2018-07-11T23:17:45.482Z,83.70
2018-07-11T23:20:12.001Z,71.60
2018-07-11T23:22:38.518Z,71.70
2018-07-11T23:25:05.025Z,71.90
2018-07-11T23:27:31.540Z,72.60
2018-07-11T23:29:58.039Z,73.70
2018-07-11T23:32:24.577Z,73.70
2018-07-11T23:34:51.097Z,73.10
2018-07-11T23:37:20.003Z,73.20
2018-07-11T23:39:46.672Z,73.20
2018-07-11T23:42:13.169Z,73.60
2018-07-11T23:44:39.705Z,86.30
2018-07-11T23:47:06.230Z,74.20
2018-07-11T23:49:32.720Z,86.80
2018-07-11T23:51:59.239Z,75.10
2018-07-11T23:54:25.729Z,75.20
2018-07-11T23:56:52.272Z,75.30
2018-07-11T23:59:18.758Z,75.20
